sensor_id;sensor_type;location;lat;lon;timestamp;pressure;altitude;pressure_sealevel;temperature;humidity
59654;BME280;66556;52.008;5.432;2023-08-01T00:02:03;99812.0;;;43.18;18.45
59654;BME280;66556;52.008;5.432;2023-08-01T00:03:38;99801.0;;;43.31;18.25
59654;BME280;66556;52.008;5.432;2023-08-01T00:05:15;99805.0;;;43.38;18.32
59654;BME280;66556;52.008;5.432;2023-08-01T00:08:27;99808.0;;;43.23;18.41
59654;BME280;66556;52.008;5.432;2023-08-01T00:10:04;99808.0;;;43.26;18.45
59654;BME280;66556;52.008;5.432;2023-08-01T00:11:40;99802.0;;;43.44;18.41
59654;BME280;66556;52.008;5.432;2023-08-01T00:14:53;99800.0;;;43.31;18.41
59654;BME280;66556;52.008;5.432;2023-08-01T00:16:29;99802.0;;;43.12;18.8
59654;BME280;66556;52.008;5.432;2023-08-01T00:18:05;99800.0;;;43.14;18.66
59654;BME280;66556;52.008;5.432;2023-08-01T00:19:41;99805.0;;;42.95;19.06
59654;BME280;66556;52.008;5.432;2023-08-01T00:22:53;99797.0;;;42.61;19.39
59654;BME280;66556;52.008;5.432;2023-08-01T00:24:29;99794.0;;;43.14;18.86
59654;BME280;66556;52.008;5.432;2023-08-01T00:26:05;99796.0;;;42.91;19.12
59654;BME280;66556;52.008;5.432;2023-08-01T00:40:42;99780.0;;;35.79;31.11
59654;BME280;66556;52.008;5.432;2023-08-01T00:42:18;99781.0;;;35.75;30.78
59654;BME280;66556;52.008;5.432;2023-08-01T00:45:30;99787.0;;;35.46;31.28
59654;BME280;66556;52.008;5.432;2023-08-01T00:47:06;99785.0;;;36.17;30.38
59654;BME280;66556;52.008;5.432;2023-08-01T00:48:42;99775.0;;;37.42;27.91
59654;BME280;66556;52.008;5.432;2023-08-01T00:51:55;99770.0;;;38.36;26.49
59654;BME280;66556;52.008;5.432;2023-08-01T00:53:31;99760.0;;;37.56;26.72
59654;BME280;66556;52.008;5.432;2023-08-01T00:55:08;99758.0;;;37.33;27.2
59654;BME280;66556;52.008;5.432;2023-08-01T00:56:44;99755.0;;;38.03;26.32
59654;BME280;66556;52.008;5.432;2023-08-01T00:59:56;99750.0;;;37.94;26.29
59654;BME280;66556;52.008;5.432;2023-08-01T01:01:32;99753.0;;;38.26;25.84
59654;BME280;66556;52.008;5.432;2023-08-01T01:03:08;99747.0;;;38.58;25.21
59654;BME280;66556;52.008;5.432;2023-08-01T01:06:24;99748.0;;;38.17;25.5
59654;BME280;66556;52.008;5.432;2023-08-01T01:08:03;99747.0;;;38.12;25.47
59654;BME280;66556;52.008;5.432;2023-08-01T01:09:41;99750.0;;;38.75;24.42
59654;BME280;66556;52.008;5.432;2023-08-01T01:12:53;99748.0;;;37.89;25.35
59654;BME280;66556;52.008;5.432;2023-08-01T01:14:29;99743.0;;;37.97;25.24
59654;BME280;66556;52.008;5.432;2023-08-01T01:16:05;99740.0;;;38.64;24.73
59654;BME280;66556;52.008;5.432;2023-08-01T01:17:41;99744.0;;;38.92;24.13
59654;BME280;66556;52.008;5.432;2023-08-01T01:20:53;99745.0;;;39.0;23.86
59654;BME280;66556;52.008;5.432;2023-08-01T01:22:30;99744.0;;;39.19;23.73
59654;BME280;66556;52.008;5.432;2023-08-01T01:24:08;99746.0;;;38.49;24.26
59654;BME280;66556;52.008;5.432;2023-08-01T01:27:23;99746.0;;;39.46;23.26
59654;BME280;66556;52.008;5.432;2023-08-01T01:29:02;99747.0;;;39.08;23.26
59654;BME280;66556;52.008;5.432;2023-08-01T01:30:39;99751.0;;;39.06;23.29
59654;BME280;66556;52.008;5.432;2023-08-01T01:32:18;99755.0;;;38.97;23.42
59654;BME280;66556;52.008;5.432;2023-08-01T01:35:33;99753.0;;;40.08;22.5
59654;BME280;66556;52.008;5.432;2023-08-01T01:37:09;99757.0;;;39.83;22.73
59654;BME280;66556;52.008;5.432;2023-08-01T01:38:45;99757.0;;;38.99;23.87
59654;BME280;66556;52.008;5.432;2023-08-01T01:41:57;99755.0;;;39.83;22.73
59654;BME280;66556;52.008;5.432;2023-08-01T01:43:34;99755.0;;;39.37;23.35
59654;BME280;66556;52.008;5.432;2023-08-01T01:45:10;99756.0;;;38.68;23.62
59654;BME280;66556;52.008;5.432;2023-08-01T01:48:22;99750.0;;;39.78;22.88
59654;BME280;66556;52.008;5.432;2023-08-01T01:49:58;99758.0;;;38.24;24.41
59654;BME280;66556;52.008;5.432;2023-08-01T01:51:35;99751.0;;;38.31;24.66
59654;BME280;66556;52.008;5.432;2023-08-01T01:53:11;99752.0;;;39.17;23.53
59654;BME280;66556;52.008;5.432;2023-08-01T01:56:23;99753.0;;;40.18;22.27
59654;BME280;66556;52.008;5.432;2023-08-01T01:57:59;99748.0;;;38.68;23.87
59654;BME280;66556;52.008;5.432;2023-08-01T01:59:36;99747.0;;;38.46;24.3
59654;BME280;66556;52.008;5.432;2023-08-01T02:02:48;99744.0;;;39.54;23.3
59654;BME280;66556;52.008;5.432;2023-08-01T02:04:24;99745.0;;;38.99;23.87
59654;BME280;66556;52.008;5.432;2023-08-01T02:06:00;99744.0;;;39.14;23.57
59654;BME280;66556;52.008;5.432;2023-08-01T02:09:12;99737.0;;;39.72;22.79
59654;BME280;66556;52.008;5.432;2023-08-01T02:10:48;99744.0;;;39.78;22.89
59654;BME280;66556;52.008;5.432;2023-08-01T02:12:24;99747.0;;;38.89;23.91
59654;BME280;66556;52.008;5.432;2023-08-01T02:15:36;99740.0;;;38.67;24.03
59654;BME280;66556;52.008;5.432;2023-08-01T02:17:12;99738.0;;;39.53;23.23
59654;BME280;66556;52.008;5.432;2023-08-01T02:18:49;99736.0;;;39.54;23.11
59654;BME280;66556;52.008;5.432;2023-08-01T02:20:25;99739.0;;;39.35;23.44
59654;BME280;66556;52.008;5.432;2023-08-01T02:23:37;99732.0;;;39.51;23.34
59654;BME280;66556;52.008;5.432;2023-08-01T02:25:13;99732.0;;;38.67;24.08
59654;BME280;66556;52.008;5.432;2023-08-01T02:26:50;99726.0;;;39.81;22.77
59654;BME280;66556;52.008;5.432;2023-08-01T02:30:03;99725.0;;;39.92;22.66
59654;BME280;66556;52.008;5.432;2023-08-01T02:31:38;99727.0;;;39.96;22.85
59654;BME280;66556;52.008;5.432;2023-08-01T02:33:14;99726.0;;;40.06;22.61
59654;BME280;66556;52.008;5.432;2023-08-01T02:36:27;99728.0;;;40.26;22.55
59654;BME280;66556;52.008;5.432;2023-08-01T02:38:03;99727.0;;;39.46;23.53
59654;BME280;66556;52.008;5.432;2023-08-01T02:39:39;99725.0;;;39.81;23.31
59654;BME280;66556;52.008;5.432;2023-08-01T02:42:51;99730.0;;;40.31;22.59
59654;BME280;66556;52.008;5.432;2023-08-01T02:44:28;99730.0;;;40.46;22.62
59654;BME280;66556;52.008;5.432;2023-08-01T02:46:05;99730.0;;;40.67;22.24
59654;BME280;66556;52.008;5.432;2023-08-01T02:47:41;99730.0;;;40.36;22.76
59654;BME280;66556;52.008;5.432;2023-08-01T02:50:54;99732.0;;;40.58;22.59
59654;BME280;66556;52.008;5.432;2023-08-01T02:52:30;99730.0;;;39.97;23.17
59654;BME280;66556;52.008;5.432;2023-08-01T02:54:07;99728.0;;;40.42;22.76
59654;BME280;66556;52.008;5.432;2023-08-01T02:57:20;99728.0;;;40.78;22.34
59654;BME280;66556;52.008;5.432;2023-08-01T02:58:56;99728.0;;;39.89;23.04
59654;BME280;66556;52.008;5.432;2023-08-01T03:00:32;99730.0;;;39.99;23.22
59654;BME280;66556;52.008;5.432;2023-08-01T03:03:45;99728.0;;;39.78;23.4
59654;BME280;66556;52.008;5.432;2023-08-01T03:05:20;99730.0;;;39.83;22.85
59654;BME280;66556;52.008;5.432;2023-08-01T03:06:57;99728.0;;;39.42;23.71
59654;BME280;66556;52.008;5.432;2023-08-01T03:08:33;99726.0;;;40.07;23.3
59654;BME280;66556;52.008;5.432;2023-08-01T03:11:45;99728.0;;;40.5;22.47
59654;BME280;66556;52.008;5.432;2023-08-01T03:13:21;99730.0;;;40.01;23.29
59654;BME280;66556;52.008;5.432;2023-08-01T03:14:57;99725.0;;;39.71;23.57
59654;BME280;66556;52.008;5.432;2023-08-01T03:18:09;99726.0;;;39.94;23.12
59654;BME280;66556;52.008;5.432;2023-08-01T03:19:45;99722.0;;;40.78;22.4
59654;BME280;66556;52.008;5.432;2023-08-01T03:21:21;99723.0;;;39.89;23.23
59654;BME280;66556;52.008;5.432;2023-08-01T03:24:34;99719.0;;;39.5;23.64
59654;BME280;66556;52.008;5.432;2023-08-01T03:26:10;99722.0;;;39.46;23.69
59654;BME280;66556;52.008;5.432;2023-08-01T03:27:46;99722.0;;;39.61;23.61
59654;BME280;66556;52.008;5.432;2023-08-01T03:30:58;99730.0;;;39.89;23.5
59654;BME280;66556;52.008;5.432;2023-08-01T03:32:34;99735.0;;;40.75;22.25
59654;BME280;66556;52.008;5.432;2023-08-01T03:34:10;99735.0;;;39.46;23.58
59654;BME280;66556;52.008;5.432;2023-08-01T03:35:46;99736.0;;;38.99;24.19
59654;BME280;66556;52.008;5.432;2023-08-01T03:38:58;99731.0;;;39.32;23.85
59654;BME280;66556;52.008;5.432;2023-08-01T03:40:34;99731.0;;;39.78;23.46
59654;BME280;66556;52.008;5.432;2023-08-01T03:42:10;99726.0;;;39.89;22.93
59654;BME280;66556;52.008;5.432;2023-08-01T03:45:23;99725.0;;;39.54;23.29
59654;BME280;66556;52.008;5.432;2023-08-01T03:46:59;99731.0;;;40.42;22.51
59654;BME280;66556;52.008;5.432;2023-08-01T03:48:35;99728.0;;;40.82;22.26
59654;BME280;66556;52.008;5.432;2023-08-01T03:51:47;99728.0;;;41.28;21.58
59654;BME280;66556;52.008;5.432;2023-08-01T03:53:23;99733.0;;;41.29;21.6
59654;BME280;66556;52.008;5.432;2023-08-01T03:54:59;99737.0;;;40.29;22.65
59654;BME280;66556;52.008;5.432;2023-08-01T03:56:35;99741.0;;;40.42;22.5
59654;BME280;66556;52.008;5.432;2023-08-01T03:59:48;99741.0;;;40.57;22.28
59654;BME280;66556;52.008;5.432;2023-08-01T04:01:24;99742.0;;;40.72;22.36
59654;BME280;66556;52.008;5.432;2023-08-01T04:03:00;99739.0;;;39.92;23.04
59654;BME280;66556;52.008;5.432;2023-08-01T04:06:13;99736.0;;;40.89;22.09
59654;BME280;66556;52.008;5.432;2023-08-01T04:07:49;99738.0;;;40.79;22.34
59654;BME280;66556;52.008;5.432;2023-08-01T04:09:25;99746.0;;;40.42;22.64
59654;BME280;66556;52.008;5.432;2023-08-01T04:12:37;99751.0;;;40.64;22.35
59654;BME280;66556;52.008;5.432;2023-08-01T04:14:13;99745.0;;;40.04;23.44
59654;BME280;66556;52.008;5.432;2023-08-01T04:15:50;99751.0;;;39.99;22.96
59654;BME280;66556;52.008;5.432;2023-08-01T04:19:03;99750.0;;;40.15;22.96
59654;BME280;66556;52.008;5.432;2023-08-01T04:20:39;99755.0;;;40.06;22.92
59654;BME280;66556;52.008;5.432;2023-08-01T04:22:15;99751.0;;;40.12;23.14
59654;BME280;66556;52.008;5.432;2023-08-01T04:23:51;99747.0;;;40.0;23.15
59654;BME280;66556;52.008;5.432;2023-08-01T04:27:04;99747.0;;;40.17;22.88
59654;BME280;66556;52.008;5.432;2023-08-01T04:28:41;99745.0;;;40.35;22.72
59654;BME280;66556;52.008;5.432;2023-08-01T04:30:17;99739.0;;;40.58;22.5
59654;BME280;66556;52.008;5.432;2023-08-01T04:33:29;99738.0;;;41.04;21.93
59654;BME280;66556;52.008;5.432;2023-08-01T04:35:05;99738.0;;;41.52;21.38
59654;BME280;66556;52.008;5.432;2023-08-01T04:36:42;99736.0;;;41.32;21.5
59654;BME280;66556;52.008;5.432;2023-08-01T04:39:54;99737.0;;;41.09;21.65
59654;BME280;66556;52.008;5.432;2023-08-01T04:41:30;99731.0;;;41.66;21.22
59654;BME280;66556;52.008;5.432;2023-08-01T04:43:06;99733.0;;;41.38;21.28
59654;BME280;66556;52.008;5.432;2023-08-01T04:46:19;99731.0;;;41.43;21.44
59654;BME280;66556;52.008;5.432;2023-08-01T04:47:55;99735.0;;;41.37;21.56
59654;BME280;66556;52.008;5.432;2023-08-01T04:49:31;99737.0;;;41.83;21.05
59654;BME280;66556;52.008;5.432;2023-08-01T04:51:07;99730.0;;;41.93;20.67
59654;BME280;66556;52.008;5.432;2023-08-01T04:54:19;99732.0;;;41.18;21.49
59654;BME280;66556;52.008;5.432;2023-08-01T04:55:55;99731.0;;;40.26;22.29
59654;BME280;66556;52.008;5.432;2023-08-01T04:57:31;99731.0;;;40.11;22.74
59654;BME280;66556;52.008;5.432;2023-08-01T05:00:44;99730.0;;;40.21;22.8
59654;BME280;66556;52.008;5.432;2023-08-01T05:02:20;99730.0;;;40.67;22.3
59654;BME280;66556;52.008;5.432;2023-08-01T05:03:55;99730.0;;;40.37;22.47
59654;BME280;66556;52.008;5.432;2023-08-01T05:07:07;99730.0;;;41.15;21.77
59654;BME280;66556;52.008;5.432;2023-08-01T05:08:43;99726.0;;;41.59;21.43
59654;BME280;66556;52.008;5.432;2023-08-01T05:10:19;99728.0;;;40.86;22.12
59654;BME280;66556;52.008;5.432;2023-08-01T05:13:31;99738.0;;;41.14;21.98
59654;BME280;66556;52.008;5.432;2023-08-01T05:15:08;99738.0;;;40.14;23.01
59654;BME280;66556;52.008;5.432;2023-08-01T05:16:44;99734.0;;;41.25;21.87
59654;BME280;66556;52.008;5.432;2023-08-01T05:18:20;99736.0;;;41.45;21.64
59654;BME280;66556;52.008;5.432;2023-08-01T05:21:32;99738.0;;;41.46;21.63
59654;BME280;66556;52.008;5.432;2023-08-01T05:23:08;99734.0;;;41.55;21.42
59654;BME280;66556;52.008;5.432;2023-08-01T05:24:46;99744.0;;;41.1;21.99
59654;BME280;66556;52.008;5.432;2023-08-01T05:27:58;99742.0;;;41.94;21.21
59654;BME280;66556;52.008;5.432;2023-08-01T05:29:34;99739.0;;;41.83;21.07
59654;BME280;66556;52.008;5.432;2023-08-01T05:31:10;99740.0;;;42.12;20.82
59654;BME280;66556;52.008;5.432;2023-08-01T05:34:22;99745.0;;;41.64;21.5
59654;BME280;66556;52.008;5.432;2023-08-01T05:35:58;99746.0;;;42.38;20.92
59654;BME280;66556;52.008;5.432;2023-08-01T05:37:34;99747.0;;;41.77;21.23
59654;BME280;66556;52.008;5.432;2023-08-01T05:39:10;99749.0;;;42.01;21.0
59654;BME280;66556;52.008;5.432;2023-08-01T05:42:23;99747.0;;;42.92;20.04
59654;BME280;66556;52.008;5.432;2023-08-01T05:43:59;99751.0;;;42.74;20.13
59654;BME280;66556;52.008;5.432;2023-08-01T05:45:35;99744.0;;;42.23;20.49
59654;BME280;66556;52.008;5.432;2023-08-01T05:48:47;99752.0;;;42.25;20.69
59654;BME280;66556;52.008;5.432;2023-08-01T05:50:23;99750.0;;;42.28;20.64
59654;BME280;66556;52.008;5.432;2023-08-01T05:51:59;99759.0;;;41.99;20.86
59654;BME280;66556;52.008;5.432;2023-08-01T05:55:11;99752.0;;;42.27;20.78
59654;BME280;66556;52.008;5.432;2023-08-01T05:56:48;99757.0;;;42.52;20.36
59654;BME280;66556;52.008;5.432;2023-08-01T05:58:24;99756.0;;;42.74;20.05
59654;BME280;66556;52.008;5.432;2023-08-01T06:01:36;99757.0;;;43.63;19.22
59654;BME280;66556;52.008;5.432;2023-08-01T06:03:12;99758.0;;;44.07;19.14
59654;BME280;66556;52.008;5.432;2023-08-01T06:04:48;99765.0;;;43.57;19.52
59654;BME280;66556;52.008;5.432;2023-08-01T06:06:25;99767.0;;;42.19;20.6
59654;BME280;66556;52.008;5.432;2023-08-01T06:09:38;99762.0;;;43.17;19.68
59654;BME280;66556;52.008;5.432;2023-08-01T06:11:14;99764.0;;;42.74;20.25
59654;BME280;66556;52.008;5.432;2023-08-01T06:12:50;99771.0;;;41.86;21.37
59654;BME280;66556;52.008;5.432;2023-08-01T06:16:02;99769.0;;;42.93;19.93
59654;BME280;66556;52.008;5.432;2023-08-01T06:17:38;99771.0;;;43.71;19.38
59654;BME280;66556;52.008;5.432;2023-08-01T06:19:14;99774.0;;;44.49;18.66
59654;BME280;66556;52.008;5.432;2023-08-01T06:22:26;99776.0;;;44.45;18.68
59654;BME280;66556;52.008;5.432;2023-08-01T06:24:03;99781.0;;;43.69;19.16
59654;BME280;66556;52.008;5.432;2023-08-01T06:25:39;99782.0;;;44.16;18.93
59654;BME280;66556;52.008;5.432;2023-08-01T06:27:15;99780.0;;;44.77;18.11
59654;BME280;66556;52.008;5.432;2023-08-01T06:30:28;99786.0;;;43.92;19.06
59654;BME280;66556;52.008;5.432;2023-08-01T06:32:05;99789.0;;;44.09;19.09
59654;BME280;66556;52.008;5.432;2023-08-01T06:33:41;99787.0;;;44.57;18.46
59654;BME280;66556;52.008;5.432;2023-08-01T06:36:53;99792.0;;;44.52;18.68
59654;BME280;66556;52.008;5.432;2023-08-01T06:38:29;99789.0;;;45.36;18.09
59654;BME280;66556;52.008;5.432;2023-08-01T06:40:07;99796.0;;;44.27;18.73
59654;BME280;66556;52.008;5.432;2023-08-01T06:43:19;99793.0;;;44.12;19.05
59654;BME280;66556;52.008;5.432;2023-08-01T06:44:55;99797.0;;;44.67;18.68
59654;BME280;66556;52.008;5.432;2023-08-01T06:46:30;99797.0;;;44.56;18.95
59654;BME280;66556;52.008;5.432;2023-08-01T06:49:43;99794.0;;;44.85;18.68
59654;BME280;66556;52.008;5.432;2023-08-01T06:51:19;99797.0;;;44.08;19.27
59654;BME280;66556;52.008;5.432;2023-08-01T06:52:55;99800.0;;;44.13;19.27
59654;BME280;66556;52.008;5.432;2023-08-01T06:54:32;99801.0;;;44.72;18.57
59654;BME280;66556;52.008;5.432;2023-08-01T06:57:44;99802.0;;;44.62;18.14
59654;BME280;66556;52.008;5.432;2023-08-01T06:59:20;99805.0;;;44.6;18.02
59654;BME280;66556;52.008;5.432;2023-08-01T07:00:57;99805.0;;;44.59;18.39
59654;BME280;66556;52.008;5.432;2023-08-01T07:04:10;99803.0;;;44.94;18.38
59654;BME280;66556;52.008;5.432;2023-08-01T07:05:46;99807.0;;;45.02;18.47
59654;BME280;66556;52.008;5.432;2023-08-01T07:07:22;99807.0;;;43.75;18.56
59654;BME280;66556;52.008;5.432;2023-08-01T07:10:34;99805.0;;;44.16;18.36
59654;BME280;66556;52.008;5.432;2023-08-01T07:13:47;99803.0;;;44.16;18.41
59654;BME280;66556;52.008;5.432;2023-08-01T07:15:23;99797.0;;;45.35;17.66
59654;BME280;66556;52.008;5.432;2023-08-01T07:18:35;99792.0;;;45.94;17.41
59654;BME280;66556;52.008;5.432;2023-08-01T07:20:12;99795.0;;;45.09;18.02
59654;BME280;66556;52.008;5.432;2023-08-01T07:21:48;99788.0;;;46.08;16.84
59654;BME280;66556;52.008;5.432;2023-08-01T07:25:00;99797.0;;;45.9;16.63
59654;BME280;66556;52.008;5.432;2023-08-01T07:26:36;99795.0;;;44.76;18.07
59654;BME280;66556;52.008;5.432;2023-08-01T07:28:12;99799.0;;;45.26;17.59
59654;BME280;66556;52.008;5.432;2023-08-01T07:31:24;99801.0;;;44.21;18.04
59654;BME280;66556;52.008;5.432;2023-08-01T07:33:00;99803.0;;;44.75;17.43
59654;BME280;66556;52.008;5.432;2023-08-01T07:34:36;99805.0;;;43.46;18.82
59654;BME280;66556;52.008;5.432;2023-08-01T07:37:48;99806.0;;;43.91;18.23
59654;BME280;66556;52.008;5.432;2023-08-01T07:39:25;99805.0;;;43.83;18.77
59654;BME280;66556;52.008;5.432;2023-08-01T07:41:02;99807.0;;;44.15;17.95
59654;BME280;66556;52.008;5.432;2023-08-01T07:42:39;99807.0;;;44.08;18.21
59654;BME280;66556;52.008;5.432;2023-08-01T07:45:55;99803.0;;;43.4;18.63
59654;BME280;66556;52.008;5.432;2023-08-01T07:47:32;99798.0;;;44.23;17.71
59654;BME280;66556;52.008;5.432;2023-08-01T07:49:09;99805.0;;;43.44;18.16
59654;BME280;66556;52.008;5.432;2023-08-01T07:52:21;99808.0;;;43.73;17.97
59654;BME280;66556;52.008;5.432;2023-08-01T07:53:57;99815.0;;;43.54;18.39
59654;BME280;66556;52.008;5.432;2023-08-01T07:55:33;99816.0;;;43.34;19.66
59654;BME280;66556;52.008;5.432;2023-08-01T07:57:10;99820.0;;;44.42;19.27
59654;BME280;66556;52.008;5.432;2023-08-01T08:00:23;99812.0;;;45.07;18.95
59654;BME280;66556;52.008;5.432;2023-08-01T08:01:59;99805.0;;;44.61;19.36
59654;BME280;66556;52.008;5.432;2023-08-01T08:03:35;99813.0;;;44.2;18.37
59654;BME280;66556;52.008;5.432;2023-08-01T08:06:48;99818.0;;;45.58;18.23
59654;BME280;66556;52.008;5.432;2023-08-01T08:08:24;99816.0;;;44.89;17.48
59654;BME280;66556;52.008;5.432;2023-08-01T08:10:00;99815.0;;;44.86;18.18
59654;BME280;66556;52.008;5.432;2023-08-01T08:13:12;99816.0;;;44.39;17.27
59654;BME280;66556;52.008;5.432;2023-08-01T08:14:48;99817.0;;;44.8;17.16
59654;BME280;66556;52.008;5.432;2023-08-01T08:16:24;99815.0;;;45.01;17.31
59654;BME280;66556;52.008;5.432;2023-08-01T08:19:37;99817.0;;;44.94;16.93
59654;BME280;66556;52.008;5.432;2023-08-01T08:21:14;99820.0;;;44.75;17.16
59654;BME280;66556;52.008;5.432;2023-08-01T08:22:50;99830.0;;;44.78;17.37
59654;BME280;66556;52.008;5.432;2023-08-01T08:24:26;99826.0;;;44.83;17.36
59654;BME280;66556;52.008;5.432;2023-08-01T08:27:38;99830.0;;;45.14;16.39
59654;BME280;66556;52.008;5.432;2023-08-01T08:29:15;99832.0;;;45.33;16.59
59654;BME280;66556;52.008;5.432;2023-08-01T08:30:51;99822.0;;;45.93;16.91
59654;BME280;66556;52.008;5.432;2023-08-01T08:34:03;99822.0;;;45.89;16.36
59654;BME280;66556;52.008;5.432;2023-08-01T08:35:39;99824.0;;;45.46;16.78
59654;BME280;66556;52.008;5.432;2023-08-01T08:37:16;99830.0;;;45.68;16.36
59654;BME280;66556;52.008;5.432;2023-08-01T08:40:28;99824.0;;;44.87;16.53
59654;BME280;66556;52.008;5.432;2023-08-01T08:42:04;99826.0;;;46.28;16.04
59654;BME280;66556;52.008;5.432;2023-08-01T08:43:41;99823.0;;;45.95;15.99
59654;BME280;66556;52.008;5.432;2023-08-01T08:45:19;99822.0;;;46.27;16.04
59654;BME280;66556;52.008;5.432;2023-08-01T08:48:39;99821.0;;;46.44;15.98
59654;BME280;66556;52.008;5.432;2023-08-01T08:50:17;99825.0;;;47.43;15.25
59654;BME280;66556;52.008;5.432;2023-08-01T08:51:54;99833.0;;;47.97;14.74
59654;BME280;66556;52.008;5.432;2023-08-01T08:55:08;99831.0;;;45.7;15.54
59654;BME280;66556;52.008;5.432;2023-08-01T08:56:45;99831.0;;;46.91;15.28
59654;BME280;66556;52.008;5.432;2023-08-01T08:58:23;99828.0;;;46.01;15.4
59654;BME280;66556;52.008;5.432;2023-08-01T09:00:01;99835.0;;;45.64;15.87
59654;BME280;66556;52.008;5.432;2023-08-01T09:03:16;99827.0;;;46.75;15.13
59654;BME280;66556;52.008;5.432;2023-08-01T09:04:52;99832.0;;;46.28;16.2
59654;BME280;66556;52.008;5.432;2023-08-01T09:06:31;99837.0;;;45.43;15.94
59654;BME280;66556;52.008;5.432;2023-08-01T09:09:55;99840.0;;;45.49;16.2
59654;BME280;66556;52.008;5.432;2023-08-01T09:11:39;99845.0;;;45.36;16.28
59654;BME280;66556;52.008;5.432;2023-08-01T09:13:18;99842.0;;;45.22;16.36
59654;BME280;66556;52.008;5.432;2023-08-01T09:14:56;99847.0;;;45.19;16.21
59654;BME280;66556;52.008;5.432;2023-08-01T09:18:09;99839.0;;;46.55;14.84
59654;BME280;66556;52.008;5.432;2023-08-01T09:19:45;99844.0;;;45.49;15.55
59654;BME280;66556;52.008;5.432;2023-08-01T09:21:22;99847.0;;;45.82;15.73
59654;BME280;66556;52.008;5.432;2023-08-01T09:22:58;99846.0;;;45.99;15.67
59654;BME280;66556;52.008;5.432;2023-08-01T09:26:13;99843.0;;;47.0;14.82
59654;BME280;66556;52.008;5.432;2023-08-01T09:27:49;99843.0;;;47.05;15.12
59654;BME280;66556;52.008;5.432;2023-08-01T09:29:25;99843.0;;;46.85;15.82
59654;BME280;66556;52.008;5.432;2023-08-01T09:32:37;99841.0;;;47.07;15.48
59654;BME280;66556;52.008;5.432;2023-08-01T09:34:18;99855.0;;;46.58;15.62
59654;BME280;66556;52.008;5.432;2023-08-01T09:35:55;99853.0;;;46.41;15.18
59654;BME280;66556;52.008;5.432;2023-08-01T09:39:18;99858.0;;;46.18;15.36
59654;BME280;66556;52.008;5.432;2023-08-01T09:40:55;99861.0;;;46.44;15.05
59654;BME280;66556;52.008;5.432;2023-08-01T09:42:37;99858.0;;;46.3;15.49
59654;BME280;66556;52.008;5.432;2023-08-01T09:44:16;99861.0;;;46.39;15.03
59654;BME280;66556;52.008;5.432;2023-08-01T09:47:36;99863.0;;;46.72;14.52
59654;BME280;66556;52.008;5.432;2023-08-01T09:49:12;99869.0;;;47.11;15.41
59654;BME280;66556;52.008;5.432;2023-08-01T09:50:49;99872.0;;;47.77;14.48
59654;BME280;66556;52.008;5.432;2023-08-01T09:52:27;99865.0;;;47.01;14.86
59654;BME280;66556;52.008;5.432;2023-08-01T09:55:40;99863.0;;;47.88;14.74
59654;BME280;66556;52.008;5.432;2023-08-01T09:57:20;99869.0;;;48.0;14.82
59654;BME280;66556;52.008;5.432;2023-08-01T09:58:59;99869.0;;;47.4;14.56
59654;BME280;66556;52.008;5.432;2023-08-01T10:00:36;99867.0;;;46.74;14.54
59654;BME280;66556;52.008;5.432;2023-08-01T10:03:56;99866.0;;;47.68;14.63
59654;BME280;66556;52.008;5.432;2023-08-01T10:05:34;99873.0;;;48.59;14.38
59654;BME280;66556;52.008;5.432;2023-08-01T10:07:12;99868.0;;;48.06;14.14
59654;BME280;66556;52.008;5.432;2023-08-01T10:10:28;99869.0;;;47.66;13.57
59654;BME280;66556;52.008;5.432;2023-08-01T10:12:07;99875.0;;;46.98;14.4
59654;BME280;66556;52.008;5.432;2023-08-01T10:13:46;99882.0;;;47.87;13.69
59654;BME280;66556;52.008;5.432;2023-08-01T10:15:23;99878.0;;;47.76;14.01
59654;BME280;66556;52.008;5.432;2023-08-01T10:18:38;99880.0;;;48.45;14.43
59654;BME280;66556;52.008;5.432;2023-08-01T10:20:15;99880.0;;;48.27;14.28
59654;BME280;66556;52.008;5.432;2023-08-01T10:21:53;99885.0;;;49.34;13.99
59654;BME280;66556;52.008;5.432;2023-08-01T10:25:08;99881.0;;;48.27;13.7
59654;BME280;66556;52.008;5.432;2023-08-01T10:26:45;99887.0;;;48.89;13.38
59654;BME280;66556;52.008;5.432;2023-08-01T10:28:30;99891.0;;;48.65;13.33
59654;BME280;66556;52.008;5.432;2023-08-01T10:30:07;99896.0;;;48.22;13.17
59654;BME280;66556;52.008;5.432;2023-08-01T10:33:33;99889.0;;;48.86;13.37
59654;BME280;66556;52.008;5.432;2023-08-01T10:35:09;99888.0;;;48.54;13.2
59654;BME280;66556;52.008;5.432;2023-08-01T10:36:53;99905.0;;;48.74;13.28
59654;BME280;66556;52.008;5.432;2023-08-01T10:38:30;99894.0;;;49.25;12.41
59654;BME280;66556;52.008;5.432;2023-08-01T10:41:43;99894.0;;;50.03;12.6
59654;BME280;66556;52.008;5.432;2023-08-01T10:43:20;99897.0;;;49.39;12.53
59654;BME280;66556;52.008;5.432;2023-08-01T10:44:57;99898.0;;;48.87;12.58
59654;BME280;66556;52.008;5.432;2023-08-01T10:48:26;99902.0;;;49.93;12.27
59654;BME280;66556;52.008;5.432;2023-08-01T10:50:13;99900.0;;;49.57;12.83
59654;BME280;66556;52.008;5.432;2023-08-01T10:51:50;99905.0;;;48.98;12.72
59654;BME280;66556;52.008;5.432;2023-08-01T10:53:37;99900.0;;;47.59;12.69
59654;BME280;66556;52.008;5.432;2023-08-01T10:55:13;99911.0;;;47.33;13.19
59654;BME280;66556;52.008;5.432;2023-08-01T10:58:32;99909.0;;;46.95;13.75
59654;BME280;66556;52.008;5.432;2023-08-01T11:00:09;99909.0;;;47.38;13.38
59654;BME280;66556;52.008;5.432;2023-08-01T11:01:47;99906.0;;;47.52;13.52
59654;BME280;66556;52.008;5.432;2023-08-01T11:03:33;99909.0;;;48.38;13.44
59654;BME280;66556;52.008;5.432;2023-08-01T11:06:49;99914.0;;;47.96;13.05
59654;BME280;66556;52.008;5.432;2023-08-01T11:08:34;99917.0;;;48.23;13.46
59654;BME280;66556;52.008;5.432;2023-08-01T11:10:11;99913.0;;;48.96;13.56
59654;BME280;66556;52.008;5.432;2023-08-01T11:11:50;99919.0;;;49.49;13.17
59654;BME280;66556;52.008;5.432;2023-08-01T11:15:05;99922.0;;;48.11;12.67
59654;BME280;66556;52.008;5.432;2023-08-01T11:16:43;99917.0;;;48.5;12.53
59654;BME280;66556;52.008;5.432;2023-08-01T11:18:19;99924.0;;;47.64;13.5
59654;BME280;66556;52.008;5.432;2023-08-01T11:21:53;99923.0;;;47.1;13.78
59654;BME280;66556;52.008;5.432;2023-08-01T11:23:30;99930.0;;;47.63;14.15
59654;BME280;66556;52.008;5.432;2023-08-01T11:25:07;99923.0;;;47.32;13.74
59654;BME280;66556;52.008;5.432;2023-08-01T11:26:43;99930.0;;;46.32;14.37
59654;BME280;66556;52.008;5.432;2023-08-01T11:29:57;99933.0;;;46.43;14.32